Results by/Résultats par Info:[email protected] Phone: (613)260-0994


                                     K-TOWN TRIATHLON

                                  Sunday August 1st, 2004

                           Confederation Park, Kingston, Ontario

                                Overall Results - Duathlon

  -----FINAL----- ----------------------- ------------ -------------------- ----            4km                         30 km                   7.2 km         Minus
                                                       Category                     ------RUN + T1--------    ----------BIKE--------    -------RUN + T2------- ------
    Pos     Time  Name                    City         Plc/Total Category     #      Cat  Ovr  Time     km     Cat Ovr Time  km/hr      Cat  Ovr  Time     km  Bridge
  ------  ------- ----------------------- ------------ -------------------- ----    ----------------------    ----------------------    ---------------------- ------
    1     1:36:02 Jimi Ritchie            Kingston       1/4   M20 - 24      526    1      4   15:12  3:48    1      4   51:25  35.0     1      3   29:25  4:06         
    2     1:36:33 Shari Boyle             Toronto        1/3   Elite Women   590    2      2   14:55  3:44    1     17   53:44  33.5     1      1   27:55  3:53         
    3     1:38:11 James Layfield          Godfrey        1/9   M35 - 39      509    2      8   15:47  3:57    1      5   51:46  34.8     1      7   30:39  4:16         
    4     1:38:25 Alison Wiley            Toronto        2/3   Elite Women   536    1      1   14:45  3:42    2     21   54:38  33.0     2      2   29:03  4:03         
    5     1:38:43 Andy Schuler            Ottawa         1/1   Elite Men     595    1      6   15:40  3:55    1      6   51:53  34.7     1      9   31:11  4:20         
    6     1:38:57 Rob Droughan            Toronto        1/14  M40 - 44      525    2     12   16:30  4:08    1      1   49:49  36.1     1     16   32:39  4:33         
    7     1:39:38 Kim Kavluk              Stouffville    1/8   M45 - 49      588    1      7   15:42  3:56    3     19   54:23  33.1     1      4   29:34  4:07         
    8     1:40:32 Robert Paul Aikens      Ottawa         2/14  M40 - 44      557    1     11   16:27  4:07    2      2   50:09  35.9     4     25   33:57  4:43         
    9     1:41:28 David Sly               Kingston       2/9   M35 - 39      564    3     13   16:32  4:08    4     16   53:40  33.6     3     11   31:16  4:21         
   10     1:41:29 Lisa Balerna            Ottawa         3/3   Elite Women   540    3      9   15:55  3:59    3     23   55:05  32.7     3      6   30:30  4:15         
   11     1:41:33 Jim Borrens             Ottawa         3/9   M35 - 39      567    1      5   15:36  3:54    2      9   52:50  34.1     5     19   33:07  4:36         
   12     1:41:55 Denis Moore             Napanee        3/14  M40 - 44      597    6     21   17:02  4:16    3      7   52:01  34.6     2     17   32:54  4:35         
   13     1:42:25 Dan Willemse            RR #1 Bath     4/9   M35 - 39      539    5     18   16:49  4:13    3     14   53:38  33.6     4     14   31:58  4:27         
   14     1:43:42 Mike West               Kingston       1/7   M25 - 29      520    4     46   18:58  4:45    1      3   50:51  35.4     2     23   33:54  4:43         
   15     1:43:49 Paula Hickman           Ottawa         1/3   W50 - 54      545    1     16   16:48  4:12    1     26   55:45  32.3     1     12   31:17  4:21         
   16     1:44:04 Rick Rooney             Kingston       5/9   M35 - 39      516    4     17   16:48  4:12    5     29   56:02  32.1     2     10   31:16  4:21         
   17     1:44:27 Peter Lee               Toronto        1/7   M30 - 34      579    1     22   17:03  4:16    1     18   53:47  33.5     2     22   33:37  4:41         
   18     1:44:28 Gary McTavish           Merrickville   4/14  M40 - 44      537    5     19   16:55  4:14    4     15   53:40  33.6     3     24   33:54  4:43         
   19     1:45:17 Andrew Stanley          Toronto        1/3   Junior Men    560    1      3   14:55  3:44    2     42   59:33  30.2     1      8   30:50  4:17         
   20     1:45:41 Marc-Andre Roy          Ottawa         2/7   M25 - 29      570    1     24   17:07  4:17    4     32   56:42  31.8     1     13   31:53  4:26         
   21     1:46:03 Michelle Jackman        Kingston       1/5   W30 - 34      569    1     30   17:41  4:26    1     27   55:55  32.2     1     15   32:28  4:31         
   22     1:46:33 Jeffrey Sutherland      Kingston       3/7   M25 - 29      591    3     43   18:51  4:43    3     13   53:37  33.6     3     26   34:06  4:45         
   23     1:46:46 Jeff Minicola           Peterborough   2/8   M45 - 49      534    3     26   17:21  4:21    4     20   54:29  33.0     3     30   34:56  4:52         
   24     1:46:53 Graham Ross             Merrickville   5/14  M40 - 44      568    4     15   16:40  4:10    5     28   56:00  32.2     5     27   34:13  4:46         
   25     1:47:42 James Stanley           Toronto        3/8   M45 - 49      563    2     10   16:05  4:02    6     40   58:33  30.8     2     18   33:06  4:36         
   26     1:47:59 Gregory Van Hees        Cobourg        2/3   Junior Men    576    2     20   17:00  4:15    1     35   57:40  31.2     2     20   33:20  4:38         
   27     1:47:59 Neil Hopkins            Kingston       2/7   M30 - 34      572    2     25   17:10  4:18    3     47 1:00:25  29.8     1      5   30:25  4:14         
   28     1:48:46 Nicholas Vienneau       Gananoque      2/4   M20 - 24      521    3     45   18:57  4:45    2      8   52:31  34.3     3     48   37:20  5:12         
   29     1:48:58 Brian R Campbell        St. Catharin   1/1   M55 - 59      538    1     42   18:49  4:43    1     24   55:17  32.6     1     29   34:53  4:51         
   30     1:49:44 Simon Ree               Kingston       3/7   M30 - 34      559    4     37   18:18  4:35    2     22   54:57  32.8     3     39   36:30  5:05         
   31     1:49:52 Vincent Andy Fong       Kanata         6/14  M40 - 44      574    8     29   17:39  4:25    6     34   57:32  31.3     6     28   34:42  4:50         
   32     1:50:16 John Lesarge            Kingston       4/8   M45 - 49      553    7     65   19:51  4:58    2     12   53:26  33.7     5     44   37:00  5:09         
   33     1:51:29 Diane Porteous          Kingston       1/6   W45 - 49      586    1     44   18:53  4:44    1     33   57:12  31.5     1     34   35:25  4:56         
   34     1:52:05 Martine Clement         Ottawa         1/2   W25 - 29      575    1     41   18:47  4:42    1     44   59:48  30.1     1     21   33:31  4:40         
   35     1:52:42 Jeff Winters            Kingston       7/14  M40 - 44      532    7     23   17:06  4:17    10    48 1:00:27  29.8     8     32   35:10  4:54         
   36     1:52:47 Andrew Kingston         Kingston       3/4   M20 - 24      510    2     32   17:44  4:26    3     43   59:44  30.1     2     33   35:19  4:55         
   37     1:53:03 Lisa Myles              Kingston       1/4   W40 - 44      594    2     57   19:30  4:53    1     30   56:18  32.0     2     47   37:16  5:11         
   38     1:53:16 Paul White              London         5/8   M45 - 49      517    5     59   19:34  4:54    1     10   53:04  33.9     7     59   40:39  5:39         
   39     1:53:29 Jennifer Aitken         Kingston       1/1   Junior Women  549    1     64   19:49  4:58    1     31   56:21  32.0     1     49   37:20  5:12         
   40     1:53:29 Sam McHugh              Kingston       4/7   M25 - 29      512    7     66   19:53  4:59    6     38   58:10  30.9     4     35   35:27  4:56         
   41     1:53:39 Randal Dyzak            Kingston       8/14  M40 - 44      513    3     14   16:34  4:09    8     45 1:00:21  29.8     9     42   36:46  5:07         
   42     1:54:34 Peter Kingston          Kingston       6/8   M45 - 49      506    6     62   19:42  4:56    5     39   58:17  30.9     4     40   36:37  5:06         
   43     1:54:40 Keith Batstone          Kingston       5/7   M25 - 29      585    2     31   17:44  4:26    2     11   53:21  33.8     7     67   43:35  6:04         
   44     1:54:43 Pete O'Connell          Kingston       9/14  M40 - 44      552    9     34   17:51  4:28    11    59 1:01:44  29.2     7     31   35:08  4:53         
   45     1:55:32 John Jessome            Kingston       6/9   M35 - 39      571    6     33   17:45  4:27    6     57 1:01:40  29.2     6     38   36:08  5:02         
   46     1:56:39 Daniel Segura           Kingston       4/7   M30 - 34      577    3     28   17:34  4:24    5     56 1:01:39  29.2     5     50   37:27  5:13         
   47     1:56:55 Joan Scibetta           Brewerton      2/4   W40 - 44      535    1     50   19:07  4:47    2     52 1:01:12  29.4     1     41   36:37  5:06         
   48     1:57:03 Brett Harris            Kingston       6/7   M25 - 29      578    5     49   19:03  4:46    5     37   57:49  31.1     5     58   40:12  5:35         
   49     1:59:11 Brian Lewis             Kingston      10/14  M40 - 44      519    12    69   20:25  5:07    7     36   57:47  31.2     11    61   41:01  5:42         
   50     1:59:28 Melanie Burgess         Kingston       1/3   W20 - 24      589    1     47   19:00  4:45    3     71 1:04:31  27.9     1     37   35:58  5:00         
   51     1:59:30 Tim Mcmichael           Kingston      11/14  M40 - 44      528    10    35   17:56  4:29    9     46 1:00:24  29.8     12    62   41:10  5:44         
   52     1:59:59 Christine Rostek        Kingston       1/5   W35 - 39      555    1     39   18:41  4:41    4     74 1:05:29  27.5     1     36   35:50  4:59         
   53     2:00:07 Julie Stewart           Toronto        2/5   W35 - 39      562    2     52   19:10  4:48    3     67 1:04:03  28.1     2     43   36:55  5:08         
   54     2:00:40 Tim Kingston            Inverary       1/3   M50 - 54      582    2     54   19:24  4:51    3     63 1:03:00  28.6     1     52   38:17  5:19         
   55     2:00:45 Eva Cristoveanu         Kingston       2/3   W20 - 24      548    2     58   19:30  4:53    1     60 1:01:52  29.1     2     56   39:24  5:29         
   56     2:01:02 Eric Morrow             Montreal       7/7   M25 - 29      503    6     53   19:12  4:48    7     50 1:01:01  29.5     6     60   40:49  5:41         
   57     2:02:10 Sean Gregersen          Kingston       4/4   M20 - 24      504    4     48   19:01  4:46    4     73 1:05:03  27.7     4     51   38:07  5:18         
   58     2:02:33 Jeremy Stevens          Rideau ferry   3/3   Junior Men    524    3     27   17:23  4:21    3     55 1:01:34  29.2     3     69   43:37  6:04         
   59     2:03:14 Jennifer Jackson        Kingston       2/2   W25 - 29      522    2     68   20:05  5:02    2     72 1:04:42  27.8     2     53   38:28  5:21         
   60     2:03:16 George Taylor           Yarker         7/9   M35 - 39      511    7     36   18:17  4:35    7     61 1:02:49  28.7     9     64   42:11  5:52         
   61     2:03:45 Mike McNeill            Napanee        2/3   M50 - 54      593    1     51   19:08  4:47    2     49 1:00:34  29.7     2     72   44:04  6:08         
   62     2:03:59 Steve Sills             Komoka         8/9   M35 - 39      581    9     56   19:28  4:52    8     65 1:03:17  28.5     8     63   41:16  5:44         
   63     2:05:27 Robert Martel           Kingston       5/7   M30 - 34      547    5     38   18:27  4:37    7     81 1:09:58  25.7     4     46   37:03  5:09         
   64     2:05:35 James De melo           Mississauga    6/7   M30 - 34      566    6     63   19:47  4:57    6     76 1:06:32  27.1     6     55   39:17  5:28         
   65     2:05:53 Fleming Kyle            Parham         9/9   M35 - 39      507    8     55   19:26  4:52    9     79 1:07:58  26.5     7     54   38:30  5:21         
   66     2:06:07 Danny Rose              Belleville    12/14  M40 - 44      501    11    60   19:34  4:54    12    78 1:06:56  26.9     10    57   39:38  5:31         
   67     2:06:11 Craig Johnson           Gananoque      7/7   M30 - 34      551    7     70   20:44  5:11    4     54 1:01:33  29.3     7     71   43:55  6:06         
   68     2:06:35 Brenda Ross             Ottawa         3/5   W35 - 39      565    3     61   19:37  4:55    2     64 1:03:11  28.5     3     70   43:49  6:06         
   69     2:07:21 Belinda Jeromchuk       Ottawa         4/5   W35 - 39      596    4     72   21:03  5:16    1     41   59:07  30.5     4     80   47:12  6:34         
   70     2:08:41 Melanie Pollard         Kingston       3/3   W20 - 24      561    3     71   20:44  5:11    2     69 1:04:22  28.0     3     68   43:36  6:04         
   71     2:09:06 Jim Storms              Kingston       7/8   M45 - 49      583    8     76   22:46  5:42    7     62 1:02:51  28.6     8     66   43:30  6:03         
   72     2:09:40 David Lynch             Yarker         8/8   M45 - 49      580    4     40   18:42  4:41    8     87 1:13:58  24.3     6     45   37:01  5:09         
   73     2:09:53 Kristine Jones          Kingston       2/5   W30 - 34      558    4     85   24:01  6:01    2     58 1:01:44  29.2     2     73   44:08  6:08         
   74     2:10:32 Fran Crawford           Kingston       2/6   W45 - 49      518    2     77   22:49  5:43    3     53 1:01:30  29.3     4     78   46:15  6:26         
   75     2:10:44 Sheila Kingston         Kingston       2/3   W50 - 54      505    2     73   21:38  5:25    2     75 1:06:26  27.1     2     65   42:41  5:56         
   76     2:11:39 Hang Nhan               Kingston       3/5   W30 - 34      530    2     74   22:11  5:33    3     70 1:04:27  27.9     3     75   45:01  6:16         
   77     2:14:30 Shirley Lindenberg      Belleville     3/6   W45 - 49      543    6     86   24:38  6:10    2     51 1:01:04  29.5     5     82   48:49  6:47         
   78     2:14:40 Gail O'Connell          Kingston       4/6   W45 - 49      556    4     80   23:28  5:52    5     77 1:06:49  26.9     2     74   44:24  6:10         
   79     2:18:43 Tammy Kuehn             Yarker         4/5   W30 - 34      531    3     84   23:49  5:58    4     80 1:08:46  26.2     4     77   46:08  6:25         
   80     2:18:51 Connie MacLeod          Kingston       5/6   W45 - 49      554    5     82   23:34  5:54    6     82 1:10:02  25.7     3     76   45:16  6:18         
   81     2:20:50 Lesley Bowles           Toronto        3/4   W40 - 44      550    4     89   25:50  6:28    3     68 1:04:14  28.0     4     85   50:47  7:04         
   82     2:21:13 Shawn Ogilvie           Brampton      13/14  M40 - 44      502    13    75   22:16  5:34    13    83 1:10:03  25.7     13    83   48:55  6:48         
   83     2:21:58 Ruth Bernardi           Kingston       4/4   W40 - 44      592    3     83   23:41  5:56    4     84 1:11:53  25.0     3     79   46:25  6:27         
   84     2:25:45 Heather Storms          Kingston       5/5   W35 - 39      584    5     81   23:30  5:53    5     85 1:12:58  24.7     5     84   49:18  6:51         
   85     2:32:29 Mike Bullett            Kingston      14/14  M40 - 44      541    14    87   25:09  6:18    14    86 1:13:32  24.5     14    86   53:49  7:29         
   86     2:41:12 Anne Dodington          Waterloo       3/3   W50 - 54      514    3     79   23:24  5:51    3     89 1:29:07  20.2     3     81   48:42  6:46         
   87     2:43:21 Tamie Gaudet            Joyceville     5/5   W30 - 34      508    5     88   25:13  6:19    5     88 1:19:52  22.5     5     87   58:17  8:06         
   88             Jim Porteous            Kingston       3/3   M50 - 54      587    3     67   19:55  4:59    1     25   55:36  32.4                                    
   89             Jane Cornish            Ottawa         6/6   W45 - 49      515    3     78   23:00  5:45    4     66 1:03:59  28.1